createdAt,value
2017-06-23T00:00:14.567Z,1007.61
2017-06-23T00:00:55.107Z,1007.57
2017-06-23T00:01:35.648Z,1007.58
2017-06-23T00:02:16.188Z,1007.59
2017-06-23T00:02:56.731Z,1007.59
2017-06-23T00:03:37.281Z,1007.52
2017-06-23T00:04:17.823Z,1007.56
2017-06-23T00:04:58.371Z,1007.52
2017-06-23T00:05:38.916Z,1007.56
2017-06-23T00:06:19.460Z,1007.54
2017-06-23T00:07:00.004Z,1007.54
2017-06-23T00:07:40.545Z,1007.57
2017-06-23T00:08:21.086Z,1007.54
2017-06-23T00:09:01.620Z,1007.53
2017-06-23T00:09:42.158Z,1007.56
2017-06-23T00:10:22.707Z,1007.51
2017-06-23T00:11:03.246Z,1007.51
2017-06-23T00:11:43.790Z,1007.55
2017-06-23T00:12:24.330Z,1007.54
2017-06-23T00:13:04.881Z,1007.57
2017-06-23T00:13:45.426Z,1007.55
2017-06-23T00:14:25.970Z,1007.55
2017-06-23T00:15:06.503Z,1007.56
2017-06-23T00:15:47.037Z,1007.55
2017-06-23T00:16:27.584Z,1007.58
2017-06-23T00:17:08.123Z,1007.59
2017-06-23T00:17:48.679Z,1007.58
2017-06-23T00:18:29.200Z,1007.61
2017-06-23T00:19:09.748Z,1007.57
2017-06-23T00:19:50.294Z,1007.6
2017-06-23T00:20:30.828Z,1007.6
2017-06-23T00:21:11.369Z,1007.6
2017-06-23T00:21:51.908Z,1007.65
2017-06-23T00:22:32.453Z,1007.62
2017-06-23T00:23:12.989Z,1007.63
2017-06-23T00:23:53.540Z,1007.57
2017-06-23T00:24:34.073Z,1007.63
2017-06-23T00:25:14.617Z,1007.62
2017-06-23T00:25:55.155Z,1007.6
2017-06-23T00:26:35.702Z,1007.66
2017-06-23T00:27:16.237Z,1007.65
2017-06-23T00:27:56.786Z,1007.65
2017-06-23T00:28:37.334Z,1007.67
2017-06-23T00:29:17.866Z,1007.69
2017-06-23T00:29:58.409Z,1007.73
2017-06-23T00:30:38.944Z,1007.67
2017-06-23T00:31:19.480Z,1007.72
2017-06-23T00:32:00.022Z,1007.7
2017-06-23T00:32:40.567Z,1007.68
2017-06-23T00:33:21.110Z,1007.68
2017-06-23T00:34:01.654Z,1007.67
2017-06-23T00:34:42.199Z,1007.68
2017-06-23T00:35:22.741Z,1007.71
2017-06-23T00:36:03.273Z,1007.7
2017-06-23T00:36:43.808Z,1007.72
2017-06-23T00:37:24.350Z,1007.72
2017-06-23T00:38:04.891Z,1007.72
2017-06-23T00:38:45.431Z,1007.69
2017-06-23T00:39:25.974Z,1007.71
2017-06-23T00:40:06.519Z,1007.67
2017-06-23T00:40:47.059Z,1007.71
2017-06-23T00:41:27.597Z,1007.7
2017-06-23T00:42:08.139Z,1007.75
2017-06-23T00:42:48.688Z,1007.72
2017-06-23T00:43:29.249Z,1007.75
2017-06-23T00:44:09.795Z,1007.78
2017-06-23T00:44:50.337Z,1007.77
2017-06-23T00:45:30.869Z,1007.74
2017-06-23T00:46:11.414Z,1007.77
2017-06-23T00:46:51.954Z,1007.79
2017-06-23T00:47:32.497Z,1007.83
2017-06-23T00:48:13.032Z,1007.81
2017-06-23T00:48:53.579Z,1007.81
2017-06-23T00:49:34.115Z,1007.82
2017-06-23T00:50:14.662Z,1007.82
2017-06-23T00:50:55.210Z,1007.85
2017-06-23T00:51:35.750Z,1007.86
2017-06-23T00:52:16.298Z,1007.84
2017-06-23T00:52:56.839Z,1007.84
2017-06-23T00:53:37.376Z,1007.88
2017-06-23T00:54:17.919Z,1007.83
2017-06-23T00:54:58.453Z,1007.85
2017-06-23T00:55:38.997Z,1007.84
2017-06-23T00:56:19.539Z,1007.86
2017-06-23T00:57:00.084Z,1007.84
2017-06-23T00:57:40.626Z,1007.9
2017-06-23T00:58:21.170Z,1007.85
2017-06-23T00:59:01.708Z,1007.9
2017-06-23T00:59:42.244Z,1007.88
2017-06-23T01:00:22.782Z,1007.91
2017-06-23T01:01:03.327Z,1007.91
2017-06-23T01:01:43.863Z,1007.9
2017-06-23T01:02:24.405Z,1007.82
2017-06-23T01:03:04.946Z,1007.85
2017-06-23T01:03:45.492Z,1007.82
2017-06-23T01:04:26.034Z,1007.89
2017-06-23T01:05:06.574Z,1007.86
2017-06-23T01:05:47.113Z,1007.86
2017-06-23T01:06:27.662Z,1007.87
2017-06-23T01:07:08.199Z,1007.89
2017-06-23T01:07:48.732Z,1007.85
2017-06-23T01:08:29.272Z,1007.86
2017-06-23T01:09:09.811Z,1007.88
2017-06-23T01:09:50.349Z,1007.84
2017-06-23T01:10:30.890Z,1007.88
2017-06-23T01:11:11.430Z,1007.86
2017-06-23T01:11:51.977Z,1007.87
2017-06-23T01:12:32.527Z,1007.86
2017-06-23T01:13:13.072Z,1007.84
2017-06-23T01:13:53.614Z,1007.86
2017-06-23T01:14:34.150Z,1007.83
2017-06-23T01:15:14.695Z,1007.84
2017-06-23T01:15:55.240Z,1007.82
2017-06-23T01:16:35.784Z,1007.83
2017-06-23T01:17:16.330Z,1007.83
2017-06-23T01:17:56.878Z,1007.82
2017-06-23T01:18:37.415Z,1007.84
2017-06-23T01:19:17.960Z,1007.82
2017-06-23T01:19:58.504Z,1007.87
2017-06-23T01:20:39.043Z,1007.82
2017-06-23T01:21:19.579Z,1007.81
2017-06-23T01:22:00.120Z,1007.79
2017-06-23T01:22:40.691Z,1007.77
2017-06-23T01:23:21.235Z,1007.79
2017-06-23T01:24:01.784Z,1007.8
2017-06-23T01:24:42.320Z,1007.76
2017-06-23T01:25:22.857Z,1007.83
2017-06-23T01:26:03.396Z,1007.83
2017-06-23T01:26:43.937Z,1007.83
2017-06-23T01:27:24.481Z,1007.84
2017-06-23T01:28:05.024Z,1007.89
2017-06-23T01:28:45.577Z,1007.83
2017-06-23T01:29:26.100Z,1007.85
2017-06-23T01:30:06.648Z,1007.81
2017-06-23T01:30:47.192Z,1007.81
2017-06-23T01:31:27.739Z,1007.86
2017-06-23T01:32:08.290Z,1007.79
2017-06-23T01:32:48.831Z,1007.79
2017-06-23T01:33:29.367Z,1007.87
2017-06-23T01:34:09.917Z,1007.8
2017-06-23T01:34:50.454Z,1007.79
2017-06-23T01:35:31.003Z,1007.8
2017-06-23T01:36:11.542Z,1007.74
2017-06-23T01:36:52.082Z,1007.74
2017-06-23T01:37:32.626Z,1007.78
2017-06-23T01:38:13.170Z,1007.76
2017-06-23T01:38:53.720Z,1007.76
2017-06-23T01:39:34.253Z,1007.73
2017-06-23T01:40:14.789Z,1007.73
2017-06-23T01:40:55.325Z,1007.73
2017-06-23T01:41:35.872Z,1007.7
2017-06-23T01:42:16.415Z,1007.74
2017-06-23T01:42:56.957Z,1007.73
2017-06-23T01:43:37.499Z,1007.73
2017-06-23T01:44:18.045Z,1007.72
2017-06-23T01:44:58.587Z,1007.7
2017-06-23T01:45:39.133Z,1007.71
2017-06-23T01:46:19.674Z,1007.72
2017-06-23T01:47:00.218Z,1007.71
2017-06-23T01:47:40.759Z,1007.74
2017-06-23T01:48:21.299Z,1007.77
2017-06-23T01:49:01.841Z,1007.68
2017-06-23T01:49:42.376Z,1007.7
2017-06-23T01:50:22.919Z,1007.71
2017-06-23T01:51:03.483Z,1007.68
2017-06-23T01:51:44.005Z,1007.7
2017-06-23T01:52:24.549Z,1007.69
2017-06-23T01:53:05.098Z,1007.69
2017-06-23T01:53:45.646Z,1007.76
2017-06-23T01:54:26.188Z,1007.69
2017-06-23T01:55:06.727Z,1007.67
2017-06-23T01:55:47.280Z,1007.71
2017-06-23T01:56:27.792Z,1007.71
2017-06-23T01:57:08.339Z,1007.71
2017-06-23T01:57:48.871Z,1007.71
2017-06-23T01:58:29.415Z,1007.68
2017-06-23T01:59:09.958Z,1007.65
2017-06-23T01:59:50.503Z,1007.68
2017-06-23T02:00:31.046Z,1007.63
2017-06-23T02:01:11.592Z,1007.67
2017-06-23T02:01:52.131Z,1007.66
2017-06-23T02:02:32.676Z,1007.65
2017-06-23T02:03:13.214Z,1007.61
2017-06-23T02:03:53.762Z,1007.66
2017-06-23T02:04:34.298Z,1007.61
2017-06-23T02:05:14.838Z,1007.61
2017-06-23T02:05:55.380Z,1007.65
2017-06-23T02:06:35.928Z,1007.65
2017-06-23T02:07:16.472Z,1007.67
2017-06-23T02:07:57.016Z,1007.67
2017-06-23T02:08:37.564Z,1007.71
2017-06-23T02:09:18.112Z,1007.69
2017-06-23T02:09:58.641Z,1007.71
2017-06-23T02:10:39.192Z,1007.67
2017-06-23T02:11:19.800Z,1007.72
2017-06-23T02:12:00.340Z,1007.72
2017-06-23T02:12:40.894Z,1007.7
2017-06-23T02:13:21.426Z,1007.72
2017-06-23T02:14:01.970Z,1007.73
2017-06-23T02:14:42.513Z,1007.74
2017-06-23T02:15:23.056Z,1007.73
2017-06-23T02:16:03.599Z,1007.7
2017-06-23T02:16:44.130Z,1007.74
2017-06-23T02:17:24.669Z,1007.74
2017-06-23T02:18:05.210Z,1007.71
2017-06-23T02:18:45.745Z,1007.73
2017-06-23T02:19:26.284Z,1007.74
2017-06-23T02:20:06.826Z,1007.72
2017-06-23T02:20:47.367Z,1007.72
2017-06-23T02:21:27.909Z,1007.76
2017-06-23T02:22:08.455Z,1007.69
2017-06-23T02:22:48.998Z,1007.7
2017-06-23T02:23:29.521Z,1007.69
2017-06-23T02:24:10.061Z,1007.71
2017-06-23T02:24:50.606Z,1007.71
2017-06-23T02:25:31.147Z,1007.71
2017-06-23T02:26:11.685Z,1007.72
2017-06-23T02:26:52.212Z,1007.72
2017-06-23T02:27:32.761Z,1007.7
2017-06-23T02:28:13.308Z,1007.72
2017-06-23T02:28:53.833Z,1007.71
2017-06-23T02:29:34.374Z,1007.76
2017-06-23T02:30:14.905Z,1007.76
2017-06-23T02:30:55.460Z,1007.75
2017-06-23T02:31:36.006Z,1007.72
2017-06-23T02:32:16.538Z,1007.71
2017-06-23T02:32:57.071Z,1007.73
2017-06-23T02:33:37.618Z,1007.73
2017-06-23T02:34:18.132Z,1007.7
2017-06-23T02:34:58.678Z,1007.7
2017-06-23T02:35:39.212Z,1007.68
2017-06-23T02:36:19.763Z,1007.75
2017-06-23T02:37:00.301Z,1007.7
2017-06-23T02:37:40.844Z,1007.71
2017-06-23T02:38:21.372Z,1007.69
2017-06-23T02:39:01.912Z,1007.67
2017-06-23T02:39:42.453Z,1007.72
2017-06-23T02:40:22.992Z,1007.65
2017-06-23T02:41:03.544Z,1007.64
2017-06-23T02:41:44.084Z,1007.62
2017-06-23T02:42:24.620Z,1007.67
2017-06-23T02:43:05.167Z,1007.66
2017-06-23T02:43:45.721Z,1007.62
2017-06-23T02:44:26.255Z,1007.64
2017-06-23T02:45:06.800Z,1007.62
2017-06-23T02:45:47.342Z,1007.66
2017-06-23T02:46:27.898Z,1007.62
2017-06-23T02:47:08.442Z,1007.65
2017-06-23T02:47:48.981Z,1007.67
2017-06-23T02:48:29.524Z,1007.65
2017-06-23T02:49:10.050Z,1007.65
2017-06-23T02:49:50.596Z,1007.65
2017-06-23T02:50:31.142Z,1007.61
2017-06-23T02:51:11.680Z,1007.67
2017-06-23T02:51:52.220Z,1007.65
2017-06-23T02:52:32.763Z,1007.68
2017-06-23T02:53:13.309Z,1007.65
2017-06-23T02:53:53.849Z,1007.62
2017-06-23T02:54:34.413Z,1007.64
2017-06-23T02:55:14.954Z,1007.66
2017-06-23T02:55:55.500Z,1007.67
2017-06-23T02:56:36.054Z,1007.64
2017-06-23T02:57:16.589Z,1007.67
2017-06-23T02:57:57.132Z,1007.64
2017-06-23T02:58:37.663Z,1007.62
2017-06-23T02:59:18.201Z,1007.64
2017-06-23T02:59:58.752Z,1007.64
2017-06-23T03:00:39.286Z,1007.63
2017-06-23T03:01:19.829Z,1007.54
2017-06-23T03:02:00.372Z,1007.6
2017-06-23T03:02:40.923Z,1007.59
2017-06-23T03:03:21.469Z,1007.59
2017-06-23T03:04:02.011Z,1007.63
2017-06-23T03:04:42.560Z,1007.59
2017-06-23T03:05:23.143Z,1007.62
2017-06-23T03:06:03.687Z,1007.6
2017-06-23T03:06:44.239Z,1007.6
2017-06-23T03:07:24.761Z,1007.59
2017-06-23T03:08:05.303Z,1007.6
2017-06-23T03:08:45.851Z,1007.61
2017-06-23T03:09:26.398Z,1007.61
2017-06-23T03:10:06.944Z,1007.58
2017-06-23T03:10:47.481Z,1007.57
2017-06-23T03:11:28.012Z,1007.63
2017-06-23T03:12:08.553Z,1007.59
2017-06-23T03:12:49.118Z,1007.61
2017-06-23T03:13:29.635Z,1007.63
2017-06-23T03:14:10.185Z,1007.65
2017-06-23T03:14:50.731Z,1007.65
2017-06-23T03:15:31.275Z,1007.64
2017-06-23T03:16:11.812Z,1007.65
2017-06-23T03:16:52.355Z,1007.62
2017-06-23T03:17:32.894Z,1007.67
2017-06-23T03:18:13.430Z,1007.67
2017-06-23T03:18:53.970Z,1007.65
2017-06-23T03:19:34.512Z,1007.65
2017-06-23T03:20:15.057Z,1007.64
2017-06-23T03:20:55.596Z,1007.64
2017-06-23T03:21:36.145Z,1007.64
2017-06-23T03:22:16.692Z,1007.67
2017-06-23T03:22:57.243Z,1007.69
2017-06-23T03:23:37.791Z,1007.71
2017-06-23T03:24:18.330Z,1007.68
2017-06-23T03:24:58.875Z,1007.65
2017-06-23T03:25:39.420Z,1007.68
2017-06-23T03:26:19.947Z,1007.7
2017-06-23T03:27:00.486Z,1007.73
2017-06-23T03:27:41.020Z,1007.73
2017-06-23T03:28:21.567Z,1007.75
2017-06-23T03:29:02.119Z,1007.74
2017-06-23T03:29:42.655Z,1007.75
2017-06-23T03:30:23.201Z,1007.73
2017-06-23T03:31:03.743Z,1007.74
2017-06-23T03:31:44.288Z,1007.74
2017-06-23T03:32:24.832Z,1007.76
2017-06-23T03:33:05.404Z,1007.75
2017-06-23T03:33:45.940Z,1007.78
2017-06-23T03:34:26.496Z,1007.75
2017-06-23T03:35:07.023Z,1007.81
2017-06-23T03:35:47.545Z,1007.76
2017-06-23T03:36:28.026Z,1007.8
2017-06-23T03:37:08.608Z,1007.77
2017-06-23T03:37:49.141Z,1007.82
2017-06-23T03:38:29.693Z,1007.84
2017-06-23T03:39:10.260Z,1007.81
2017-06-23T03:39:50.794Z,1007.82
2017-06-23T03:40:31.339Z,1007.82
2017-06-23T03:41:11.904Z,1007.88
2017-06-23T03:41:52.443Z,1007.84
2017-06-23T03:42:32.971Z,1007.91
2017-06-23T03:43:13.499Z,1007.89
2017-06-23T03:43:54.068Z,1007.9
2017-06-23T03:44:34.589Z,1007.91
2017-06-23T03:45:15.195Z,1007.87
2017-06-23T03:45:55.757Z,1007.87
2017-06-23T03:46:36.299Z,1007.92
2017-06-23T03:47:16.831Z,1007.94
2017-06-23T03:47:57.358Z,1007.94
2017-06-23T03:48:37.876Z,1007.96
2017-06-23T03:49:18.420Z,1007.92
2017-06-23T03:49:58.955Z,1007.94
2017-06-23T03:50:39.470Z,1007.93
2017-06-23T03:51:20.004Z,1007.96
2017-06-23T03:52:00.523Z,1007.96
2017-06-23T03:52:41.065Z,1007.96
2017-06-23T03:53:21.598Z,1007.98
2017-06-23T03:54:02.136Z,1008.03
2017-06-23T03:54:42.670Z,1008.03
2017-06-23T03:55:23.212Z,1008.01
2017-06-23T03:56:03.730Z,1008.05
2017-06-23T03:56:44.309Z,1008.07
2017-06-23T03:57:24.823Z,1008.02
2017-06-23T03:58:05.328Z,1008.03
2017-06-23T03:58:45.866Z,1008.04
2017-06-23T03:59:26.460Z,1008.03
2017-06-23T04:00:07.023Z,1008.07
2017-06-23T04:00:47.583Z,1008.05
2017-06-23T04:01:28.103Z,1008.06
2017-06-23T04:02:08.631Z,1008.04
2017-06-23T04:02:49.164Z,1008.08
2017-06-23T04:03:29.706Z,1008.04
2017-06-23T04:04:10.234Z,1008.06
2017-06-23T04:04:50.838Z,1008.06
2017-06-23T04:05:31.386Z,1008.06
2017-06-23T04:06:11.920Z,1008.06
2017-06-23T04:06:52.476Z,1008.08
2017-06-23T04:07:33.018Z,1008.04
2017-06-23T04:08:13.570Z,1008.06
2017-06-23T04:08:54.117Z,1008.11
2017-06-23T04:09:34.671Z,1008.14
2017-06-23T04:10:15.230Z,1008.11
2017-06-23T04:10:55.737Z,1008.12
2017-06-23T04:11:36.456Z,1008.08
2017-06-23T04:13:55.805Z,1008.15
2017-06-23T04:14:36.310Z,1008.12
2017-06-23T04:15:16.859Z,1008.14
2017-06-23T04:15:57.366Z,1008.15
2017-06-23T04:16:37.900Z,1008.14
2017-06-23T04:17:18.436Z,1008.16
2017-06-23T04:17:58.987Z,1008.13
2017-06-23T04:18:39.525Z,1008.09
2017-06-23T04:19:20.106Z,1008.11
2017-06-23T04:20:00.644Z,1008.12
2017-06-23T04:20:41.190Z,1008.1
2017-06-23T04:21:21.731Z,1008.12
2017-06-23T04:22:02.295Z,1008.12
2017-06-23T04:22:42.846Z,1008.08
2017-06-23T04:23:23.375Z,1008.08
2017-06-23T04:24:03.906Z,1008.1
2017-06-23T04:24:44.458Z,1008.08
2017-06-23T04:25:24.974Z,1008.1
2017-06-23T04:26:05.514Z,1008.09
2017-06-23T04:26:46.041Z,1008.09
2017-06-23T04:27:26.584Z,1008.11
2017-06-23T04:28:07.110Z,1008.07
2017-06-23T04:28:47.662Z,1008.08
2017-06-23T04:29:28.205Z,1008.07
2017-06-23T04:30:08.727Z,1008.07
2017-06-23T04:30:49.253Z,1008.09
2017-06-23T04:31:29.825Z,1008.1
2017-06-23T04:32:10.382Z,1008.1
2017-06-23T04:32:50.923Z,1008.16
2017-06-23T04:33:31.470Z,1008.14
2017-06-23T04:34:11.990Z,1008.13
2017-06-23T04:34:52.537Z,1008.1
2017-06-23T04:35:33.084Z,1008.1
2017-06-23T04:36:13.611Z,1008.08
2017-06-23T04:36:54.128Z,1008.12
2017-06-23T04:37:34.682Z,1008.14
2017-06-23T04:38:18.873Z,1008.11
2017-06-23T04:38:55.741Z,1008.11
2017-06-23T04:39:36.309Z,1008.08
2017-06-23T04:40:16.850Z,1008.07
2017-06-23T04:40:57.400Z,1008.06
2017-06-23T04:41:37.942Z,1008.06
2017-06-23T04:42:18.511Z,1008.04
2017-06-23T04:42:59.056Z,1008.06
2017-06-23T04:43:39.627Z,1008.11
2017-06-23T04:44:20.184Z,1008.1
2017-06-23T04:45:00.732Z,1008.09
2017-06-23T04:45:41.265Z,1008.09
2017-06-23T04:46:21.807Z,1008.06
2017-06-23T04:47:02.354Z,1008.08
2017-06-23T04:47:42.899Z,1008.09
2017-06-23T04:48:23.472Z,1008.07
2017-06-23T04:49:04.011Z,1008.08
2017-06-23T04:49:44.563Z,1008.07
2017-06-23T04:50:25.111Z,1008.07
2017-06-23T04:51:05.643Z,1008.08
2017-06-23T04:51:46.173Z,1008.08
2017-06-23T04:52:26.696Z,1008.09
2017-06-23T04:53:07.241Z,1008.12
2017-06-23T04:53:47.762Z,1008.09
2017-06-23T04:54:28.313Z,1008.15
2017-06-23T04:55:08.832Z,1008.16
2017-06-23T04:55:49.383Z,1008.15
2017-06-23T04:56:29.927Z,1008.14
2017-06-23T04:57:10.449Z,1008.18
2017-06-23T04:57:50.996Z,1008.2
2017-06-23T04:58:31.680Z,1008.2
2017-06-23T04:59:12.112Z,1008.23
2017-06-23T04:59:52.642Z,1008.23
2017-06-23T05:00:33.181Z,1008.25
2017-06-23T05:01:13.726Z,1008.24
2017-06-23T05:01:54.267Z,1008.26
2017-06-23T05:02:34.811Z,1008.3
2017-06-23T05:03:15.347Z,1008.28
2017-06-23T05:03:55.892Z,1008.35
2017-06-23T05:04:36.408Z,1008.32
2017-06-23T05:05:16.958Z,1008.3
2017-06-23T05:05:57.497Z,1008.26
2017-06-23T05:06:38.055Z,1008.27
2017-06-23T05:07:18.595Z,1008.32
2017-06-23T05:07:59.141Z,1008.3
2017-06-23T05:08:39.683Z,1008.29
2017-06-23T05:09:20.226Z,1008.31
2017-06-23T05:10:00.796Z,1008.33
2017-06-23T05:10:41.328Z,1008.31
2017-06-23T05:11:21.863Z,1008.36
2017-06-23T05:12:02.395Z,1008.37
2017-06-23T05:12:42.968Z,1008.36
2017-06-23T05:13:23.503Z,1008.35
2017-06-23T05:14:04.038Z,1008.36
2017-06-23T05:14:44.582Z,1008.41
2017-06-23T05:15:25.109Z,1008.36
2017-06-23T05:16:05.676Z,1008.37
2017-06-23T05:16:46.185Z,1008.33
2017-06-23T05:17:26.750Z,1008.39
2017-06-23T05:18:07.316Z,1008.39
2017-06-23T05:18:47.911Z,1008.4
2017-06-23T05:19:28.409Z,1008.41
2017-06-23T05:20:08.957Z,1008.42
2017-06-23T05:20:49.527Z,1008.44
2017-06-23T05:21:30.061Z,1008.43
2017-06-23T05:22:10.613Z,1008.42
2017-06-23T05:22:51.158Z,1008.44
2017-06-23T05:23:31.707Z,1008.42
2017-06-23T05:24:12.233Z,1008.44
2017-06-23T05:24:52.764Z,1008.45
2017-06-23T05:25:33.288Z,1008.45
2017-06-23T05:26:13.835Z,1008.42
2017-06-23T05:26:54.386Z,1008.46
2017-06-23T05:27:34.933Z,1008.46
2017-06-23T05:28:15.461Z,1008.48
2017-06-23T05:28:55.986Z,1008.52
2017-06-23T05:29:36.544Z,1008.52
2017-06-23T05:30:17.079Z,1008.5
2017-06-23T05:30:57.650Z,1008.51
2017-06-23T05:31:38.219Z,1008.51
2017-06-23T05:32:18.734Z,1008.54
2017-06-23T05:32:59.263Z,1008.54
2017-06-23T05:33:39.810Z,1008.52
2017-06-23T05:34:20.339Z,1008.59
2017-06-23T05:35:00.887Z,1008.61
2017-06-23T05:35:41.422Z,1008.63
2017-06-23T05:36:21.972Z,1008.62
2017-06-23T05:37:02.502Z,1008.65
2017-06-23T05:37:43.043Z,1008.64
2017-06-23T05:38:23.585Z,1008.61
2017-06-23T05:39:04.130Z,1008.61
2017-06-23T05:39:44.636Z,1008.65
2017-06-23T05:40:25.201Z,1008.66
2017-06-23T05:41:05.718Z,1008.67
2017-06-23T05:41:46.266Z,1008.68
2017-06-23T05:42:26.812Z,1008.63
2017-06-23T05:43:07.358Z,1008.69
2017-06-23T05:43:47.912Z,1008.67
2017-06-23T05:44:28.463Z,1008.69
2017-06-23T05:45:09.007Z,1008.71
2017-06-23T05:45:49.547Z,1008.76
2017-06-23T05:46:30.087Z,1008.71
2017-06-23T05:47:10.623Z,1008.75
2017-06-23T05:47:51.320Z,1008.77
2017-06-23T05:48:31.902Z,1008.78
2017-06-23T05:49:12.423Z,1008.79
2017-06-23T05:49:52.969Z,1008.78
2017-06-23T05:50:33.509Z,1008.8
2017-06-23T05:51:14.079Z,1008.82
2017-06-23T05:51:54.625Z,1008.81
2017-06-23T05:52:35.173Z,1008.84
2017-06-23T05:53:15.724Z,1008.82
2017-06-23T05:53:56.259Z,1008.85
2017-06-23T05:54:36.834Z,1008.9
2017-06-23T05:55:17.368Z,1008.88
2017-06-23T05:55:57.904Z,1008.89
2017-06-23T05:56:38.426Z,1008.92
2017-06-23T05:57:18.961Z,1008.97
2017-06-23T05:57:59.505Z,1008.96
2017-06-23T05:58:40.051Z,1008.92
2017-06-23T05:59:20.598Z,1008.93
2017-06-23T06:00:01.135Z,1008.95
2017-06-23T06:00:41.685Z,1008.93
2017-06-23T06:01:22.234Z,1008.93
2017-06-23T06:02:02.769Z,1008.92
2017-06-23T06:02:43.316Z,1008.92
2017-06-23T06:03:23.828Z,1008.93
2017-06-23T06:04:04.374Z,1008.94
2017-06-23T06:04:44.912Z,1008.93
2017-06-23T06:05:25.435Z,1008.95
2017-06-23T06:06:05.970Z,1009.03
2017-06-23T06:06:46.521Z,1008.99
2017-06-23T06:07:27.065Z,1008.99
2017-06-23T06:08:07.605Z,1008.99
2017-06-23T06:08:48.135Z,1008.98
2017-06-23T06:09:28.662Z,1009.01
2017-06-23T06:10:09.208Z,1009.05
2017-06-23T06:10:49.759Z,1009.05
2017-06-23T06:11:30.296Z,1009.06
2017-06-23T06:12:10.843Z,1009.05
2017-06-23T06:12:51.393Z,1009.07
2017-06-23T06:13:31.962Z,1009.09
2017-06-23T06:14:12.505Z,1009.1
2017-06-23T06:14:53.048Z,1009.12
2017-06-23T06:15:33.622Z,1009.1
2017-06-23T06:16:14.148Z,1009.11
2017-06-23T06:16:54.687Z,1009.1
2017-06-23T06:17:35.252Z,1009.11
2017-06-23T06:18:15.806Z,1009.13
2017-06-23T06:18:56.356Z,1009.11
2017-06-23T06:19:36.938Z,1009.11
2017-06-23T06:20:17.443Z,1009.1
2017-06-23T06:20:57.983Z,1009.15
2017-06-23T06:21:38.519Z,1009.18
2017-06-23T06:22:19.050Z,1009.18
2017-06-23T06:22:59.578Z,1009.22
2017-06-23T06:23:40.127Z,1009.25
2017-06-23T06:24:20.643Z,1009.24
2017-06-23T06:25:01.207Z,1009.26
2017-06-23T06:25:41.746Z,1009.28
2017-06-23T06:26:22.280Z,1009.24
2017-06-23T06:27:02.857Z,1009.21
2017-06-23T06:27:43.350Z,1009.26
2017-06-23T06:28:23.880Z,1009.25
2017-06-23T06:29:04.425Z,1009.29
2017-06-23T06:29:44.962Z,1009.27
2017-06-23T06:30:25.509Z,1009.22
2017-06-23T06:31:06.060Z,1009.29
2017-06-23T06:31:46.587Z,1009.27
2017-06-23T06:32:27.117Z,1009.27
2017-06-23T06:33:07.637Z,1009.28
2017-06-23T06:33:48.162Z,1009.25
2017-06-23T06:34:28.706Z,1009.29
2017-06-23T06:35:09.253Z,1009.27
2017-06-23T06:35:49.802Z,1009.24
2017-06-23T06:36:30.348Z,1009.32
2017-06-23T06:37:10.896Z,1009.33
2017-06-23T06:37:51.428Z,1009.33
2017-06-23T06:38:31.951Z,1009.36
2017-06-23T06:39:12.472Z,1009.35
2017-06-23T06:39:52.998Z,1009.35
2017-06-23T06:40:33.536Z,1009.38
2017-06-23T06:41:14.069Z,1009.42
2017-06-23T06:41:54.615Z,1009.41
2017-06-23T06:42:35.128Z,1009.41
2017-06-23T06:43:15.659Z,1009.41
2017-06-23T06:43:56.190Z,1009.41
2017-06-23T06:44:36.724Z,1009.42
2017-06-23T06:45:17.236Z,1009.41
2017-06-23T06:45:57.779Z,1009.43
2017-06-23T06:46:38.310Z,1009.42
2017-06-23T06:47:18.851Z,1009.44
2017-06-23T06:47:59.375Z,1009.45
2017-06-23T06:48:39.904Z,1009.45
2017-06-23T06:49:20.444Z,1009.48
2017-06-23T06:50:00.968Z,1009.5
2017-06-23T06:50:41.525Z,1009.5
2017-06-23T06:51:22.069Z,1009.54
2017-06-23T06:52:02.607Z,1009.53
2017-06-23T06:52:43.145Z,1009.53
2017-06-23T06:53:23.674Z,1009.54
2017-06-23T06:54:04.216Z,1009.54
2017-06-23T06:54:44.752Z,1009.54
2017-06-23T06:55:25.301Z,1009.6
2017-06-23T06:56:05.844Z,1009.56
2017-06-23T06:56:46.388Z,1009.6
2017-06-23T06:57:26.935Z,1009.6
2017-06-23T06:58:07.472Z,1009.6
2017-06-23T06:58:48.016Z,1009.64
2017-06-23T06:59:28.563Z,1009.64
2017-06-23T07:00:09.101Z,1009.6
2017-06-23T07:00:49.631Z,1009.61
2017-06-23T07:01:30.177Z,1009.63
2017-06-23T07:02:10.716Z,1009.67
2017-06-23T07:02:51.251Z,1009.63
2017-06-23T07:03:31.795Z,1009.61
2017-06-23T07:04:12.342Z,1009.61
2017-06-23T07:04:52.889Z,1009.63
2017-06-23T07:05:33.422Z,1009.65
2017-06-23T07:06:13.969Z,1009.67
2017-06-23T07:06:54.479Z,1009.66
2017-06-23T07:07:35.028Z,1009.66
2017-06-23T07:08:15.549Z,1009.65
2017-06-23T07:08:56.101Z,1009.67
2017-06-23T07:09:36.666Z,1009.64
2017-06-23T07:10:17.173Z,1009.66
2017-06-23T07:10:57.724Z,1009.7
2017-06-23T07:11:38.272Z,1009.7
2017-06-23T07:12:18.827Z,1009.68
2017-06-23T07:12:59.380Z,1009.72
2017-06-23T07:13:39.907Z,1009.74
2017-06-23T07:14:20.442Z,1009.7
2017-06-23T07:15:00.975Z,1009.72
2017-06-23T07:15:41.523Z,1009.74
2017-06-23T07:16:22.064Z,1009.71
2017-06-23T07:17:02.601Z,1009.69
2017-06-23T07:17:43.152Z,1009.7
2017-06-23T07:18:23.690Z,1009.71
2017-06-23T07:19:04.232Z,1009.67
2017-06-23T07:19:44.780Z,1009.79
2017-06-23T07:20:25.323Z,1009.72
2017-06-23T07:21:05.871Z,1009.74
2017-06-23T07:21:46.392Z,1009.74
2017-06-23T07:22:26.932Z,1009.73
2017-06-23T07:23:07.482Z,1009.73
2017-06-23T07:23:48.021Z,1009.67
2017-06-23T07:24:28.570Z,1009.69
2017-06-23T07:25:09.114Z,1009.71
2017-06-23T07:25:49.664Z,1009.68
2017-06-23T07:26:30.215Z,1009.67
2017-06-23T07:27:10.770Z,1009.7
2017-06-23T07:27:51.304Z,1009.7
2017-06-23T07:28:31.868Z,1009.67
2017-06-23T07:29:12.417Z,1009.65
2017-06-23T07:29:52.957Z,1009.67
2017-06-23T07:30:33.478Z,1009.71
2017-06-23T07:31:14.009Z,1009.73
2017-06-23T07:31:54.539Z,1009.68
2017-06-23T07:32:35.073Z,1009.68
2017-06-23T07:33:15.620Z,1009.69
2017-06-23T07:33:56.152Z,1009.68
2017-06-23T07:34:36.690Z,1009.73
2017-06-23T07:35:17.229Z,1009.71
2017-06-23T07:35:57.763Z,1009.72
2017-06-23T07:36:38.326Z,1009.75
2017-06-23T07:37:18.849Z,1009.74
2017-06-23T07:37:59.398Z,1009.73
2017-06-23T07:38:39.936Z,1009.78
2017-06-23T07:39:20.480Z,1009.84
2017-06-23T07:40:01.032Z,1009.79
2017-06-23T07:40:41.574Z,1009.78
2017-06-23T07:41:22.115Z,1009.82
2017-06-23T07:42:02.665Z,1009.8
2017-06-23T07:42:43.213Z,1009.8
2017-06-23T07:43:23.755Z,1009.76
2017-06-23T07:44:04.286Z,1009.74
2017-06-23T07:44:44.814Z,1009.82
2017-06-23T07:45:25.340Z,1009.79
2017-06-23T07:46:05.877Z,1009.78
2017-06-23T07:46:46.418Z,1009.78
2017-06-23T07:47:26.957Z,1009.87
2017-06-23T07:48:07.501Z,1009.82
2017-06-23T07:48:48.027Z,1009.81
2017-06-23T07:49:28.565Z,1009.81
2017-06-23T07:50:09.111Z,1009.78
2017-06-23T07:50:49.664Z,1009.75
2017-06-23T07:51:30.207Z,1009.8
2017-06-23T07:52:10.757Z,1009.74
2017-06-23T07:52:51.310Z,1009.72
2017-06-23T07:53:31.858Z,1009.75
2017-06-23T07:54:12.396Z,1009.8
2017-06-23T07:54:52.943Z,1009.85
2017-06-23T07:55:33.481Z,1009.8
2017-06-23T07:56:14.021Z,1009.8
2017-06-23T07:56:54.539Z,1009.79
2017-06-23T07:57:35.078Z,1009.81
2017-06-23T07:58:15.613Z,1009.83
2017-06-23T07:58:56.157Z,1009.76
2017-06-23T07:59:36.757Z,1009.75
2017-06-23T08:00:17.291Z,1009.73
2017-06-23T08:00:57.825Z,1009.77
2017-06-23T08:01:38.348Z,1009.78
2017-06-23T08:02:18.888Z,1009.82
2017-06-23T08:02:59.426Z,1009.77
2017-06-23T08:03:39.967Z,1009.78
2017-06-23T08:04:20.512Z,1009.77
2017-06-23T08:05:01.039Z,1009.76
2017-06-23T08:05:41.593Z,1009.79
2017-06-23T08:06:22.130Z,1009.79
2017-06-23T08:07:02.678Z,1009.77
2017-06-23T08:07:43.227Z,1009.78
2017-06-23T08:08:23.762Z,1009.79
2017-06-23T08:09:04.311Z,1009.77
2017-06-23T08:09:44.859Z,1009.74
2017-06-23T08:10:25.412Z,1009.75
2017-06-23T08:11:05.961Z,1009.74
2017-06-23T08:11:46.507Z,1009.8
2017-06-23T08:12:27.041Z,1009.76
2017-06-23T08:13:07.622Z,1009.8
2017-06-23T08:13:48.118Z,1009.79